Alamo, Georgia
Current Conditions -  °F | °C
As of 12:55 PM on Saturday 25 Oct 2014 (Local Time) from KAZE Reporting Station
Clear Clear  
Wind Chill: 75°   Ceiling: Unl
Heat Index: 75°   Visibility: 10mi
Dew Point: 51°   Wind: 0mph
Humidity: 43%   Direction: NA
Pressure: 30.02"   Gusts: NA
Location:  32.15°N, 82.78°W
Report Text: KAZE 251655Z AUTO 00000KT 10SM CLR 24/11 A3002 RMK AO2 T02390105
Loading
Personal Weather Stations






























Interactive Weather Map
Tropical Storm Tracking
New forecast layout! Learn more

10-Day Weather Forecast

Advertisements
Track Severe Weather on mobile